Terminal Aerodrome Forecast
Issued by NWS

Home | Current Version | Previous Version | Text Only | Print | Product List | Glossary On
Versions: 1 2 3 4 5 6 7 8 9 10 11 12 13 14
761
FTUS44 KTSA 261144
TAFMLC
TAF
KMLC 261144Z 2612/2712 VRB03KT 6SM BR SCT250
     FM261400 15007KT P6SM SCT250
     FM262300 15011G17KT P6SM VCTS BKN050CB
     FM270000 15010KT 3SM TSRA OVC035CB
     FM270400 VRB06KT P6SM VCTS BKN030CB
     FM270600 19010KT P6SM BKN025=

USA.gov is the U.S. government's official web portal to all federal, state and local government web resources and services.